Historyczne dane pomiarowe

Dodano dane terminowe – wersja testowa.

Dane z okresu 1951-2019

Wersja bazy: 1.34 [2019-03-16, lista zmian], aktualizacja planowana na 2019-04-15

Dane meteo z obszaru Polski uzyskane na podstawie danych udostępnionych przez Instytut Meteorologii i Gospodarki Wodnej – Państwowy Instytut Badawczy.

 

Wybierz Datę:    

       

TemperaturaWilgotnośćWiatrCiśnienieOpadyŚniegCzas trwania zjawisk
 Stacja t tx tn tng RH VA  wxwx mslp ppp RRR   cm mm wxwxwxwxwxwxwx
1961-08-14 11.6 13.3 8.0--- 7.3 2.7---- 0.3------------
1961-08-13 12.3 16.3 8.6--- 7.0 5.0---- 0.0------------
1961-08-12 16.0 21.6 13.4--- 7.0 2.7---- 0.0------------
1961-08-11 16.5 18.7 14.0--- 8.0 2.0---- 0.0------------
1961-08-10 16.1 22.6 12.8--- 8.0 6.0---- 0.4------------
1961-08-09 16.2 20.8 13.4--- 4.0 4.0---- 0.0------------
1961-08-08 16.3 19.9 8.8--- 4.3 3.0---- 0.1------------
1961-08-07 14.4 17.9 12.3--- 7.7 3.0---- 4.6------------
1961-08-06 16.3 24.9 10.4--- 1.0 5.0---- 0.7------------
1961-08-05 13.4 18.7 10.4--- 6.7 8.7---- 2.0------------
1961-08-04 12.2 15.0 7.8--- 8.0 4.0---- 9.8------------
1961-08-03 12.7 17.2 11.0--- 6.3 3.0---- 8.6------------
1961-08-02 15.8 19.5 10.7--- 6.3 4.0---- 14.8------------
1961-08-01 13.6 15.4 10.5--- 8.0 5.0---- 13.2------------
1961-07-31 13.5 14.8 13.0--- 8.0 5.0---- 2.1------------
1961-07-30 15.3 18.9 11.5--- 7.7 3.0---- 0.5------------
1961-07-29 13.2 16.2 10.1--- 7.0 4.0---- 0.1------------
1961-07-28 12.0 13.6 10.8--- 6.7 3.0---- 0.2------------
1961-07-27 14.0 18.5 12.3--- 7.0 3.7---- 1.9------------
1961-07-26 15.8 20.0 11.9--- 8.0 3.3---- 1.2------------
1961-07-25 14.2 16.1 10.7--- 6.3 6.0---- 0.6------------
1961-07-24 13.1 15.8 11.4--- 6.7 6.0---- 0.0------------
1961-07-23 13.8 15.9 12.3--- 8.0 5.0---- 1.6------------
1961-07-22 15.0 17.6 11.7--- 7.3 4.7---- 9.0------------
1961-07-21 14.0 16.0 11.8--- 8.0 3.0---- 7.6------------
1961-07-20 14.0 19.7 11.4--- 7.0 3.7---- 3.0------------
1961-07-19 15.1 19.4 11.3--- 7.0 4.0---- 0.3------------
1961-07-18 14.8 17.4 12.2--- 8.0 3.0---- 0.6------------
1961-07-17 15.3 19.7 10.7--- 7.0 2.0---- 10.8------------
1961-07-16 13.2 15.6 9.8--- 8.0 2.0---- 3.0------------
1961-07-15 14.4 19.8 10.7--- 5.0 4.0---- 1.2------------
1961-07-14 14.5 18.0 12.5--- 8.0 8.0---- 0.2------------
1961-07-13 20.3 26.2 13.0--- 5.7 4.0---- 27.0------------
1961-07-12 16.3 20.3 13.3--- 7.3 3.0---- 0.0------------
1961-07-11 14.2 17.0 9.2--- 7.0 3.7---- 1.1------------
1961-07-10 12.0 14.8 10.3--- 8.0 5.0---- 1.8------------
1961-07-09 13.9 15.4 12.6--- 8.0 4.0---- 8.1------------
1961-07-08 14.2 16.6 7.7--- 8.0 4.0---- 3.8------------
1961-07-07 11.2 15.3 9.4--- 5.7 4.0---- 7.2------------
1961-07-06 11.4 13.3 6.8--- 8.0 6.0---- 1.1------------
1961-07-05 11.4 15.2 9.8--- 5.7 12.0---- 0.1------------
1961-07-04 15.6 18.2 9.4--- 8.0 5.0---- 0.3------------
1961-07-03 21.4 31.0 11.8--- 3.0 5.0---- 0.0------------
1961-07-02 19.5 27.2 6.6--- 0.0 3.0---- 0.0------------
1961-07-01 18.7 24.6 5.0--- 0.0 2.0---- 0.0------------
1961-06-30 17.0 21.4 8.8--- 0.0 4.0---- 0.0------------
1961-06-29 16.6 17.9 11.8--- 4.7 6.0---- 0.0------------
1961-06-28 12.9 21.0 11.5--- 4.3 11.0---- 0.0------------
1961-06-27 22.5 27.7 16.6--- 5.7 5.0---- 0.3------------
1961-06-26 19.0 23.3 12.5--- 1.0 6.0---- 0.0------------
1961-06-25 19.1 24.8 13.1--- 0.3 8.3---- 0.0------------
1961-06-24 16.1 18.1 12.3--- 3.3 8.0---- 0.0------------
1961-06-23 16.0 18.3 9.2--- 5.0 8.0---- 0.0------------
1961-06-22 16.5 20.3 6.1--- 3.0 2.0---- 0.0------------
1961-06-21 13.0 18.1 8.5--- 3.7 4.0---- 0.0------------
1961-06-20 12.1 15.8 8.4--- 4.3 8.0---- 0.0------------
1961-06-19 13.4 17.1 10.7--- 4.7 10.3---- 0.0------------
1961-06-18 18.7 24.9 15.1--- 6.3 8.3---- 3.0------------
1961-06-17 17.3 20.4 10.8--- 5.3 6.3---- 0.0------------
1961-06-16 13.1 14.9 11.0--- 6.7 5.7---- 0.0------------
339.4 ms

 

Źródłem pochodzenia danych jest Instytut Meteorologii i Gospodarki Wodnej – Państwowy Instytut Badawczy. Dane Instytutu Meteorologii i Gospodarki Wodnej – Państwowego Instytutu Badawczego zostały przetworzone.

Dane źródłowe można odnaleźć na stronie https://dane.imgw.pl